Terminal Aerodrome Forecast
Issued by NWS

Home | Current Version | Previous Version | Text Only | Print | Product List | Glossary On
Versions: 1 2 3 4 5 6 7 8 9 10 11 12 13 14 15 16
000
FTUS43 KPAH 250120 AAA
TAFCGI
TAF AMD
KCGI 250120Z 2501/2524 16012G20KT P6SM VCTS SCT025CB BKN050
      TEMPO 2502/2506 VRB20G35KT 3SM TSRA BKN025CB
     FM250600 17015KT 4SM -SHRA BR BKN025
     FM251400 20010KT P6SM SCT035 BKN100
     FM251800 19012KT P6SM SCT050 BKN250=

USA.gov is the U.S. government's official web portal to all federal, state and local government web resources and services.